Terminal Aerodrome Forecast
Issued by NWS Brownsville, TX

Home | Current Version | Previous Version | Text Only | Print | Product List | Glossary On
Versions: 1 2 3 4 5 6 7 8 9 10 11 12 13 14 15 16 17 18 19
817
FTUS44 KBRO 200757 AAA
TAFMFE
TAF AMD
KMFE 200757Z 2008/2106 15006KT P6SM FEW015 SCT025
      TEMPO 2008/2012 4SM BR BKN015
     FM201600 14013G18KT P6SM VCSH FEW035 BKN060
     FM210100 13012KT P6SM FEW050=

USA.gov is the U.S. government's official web portal to all federal, state and local government web resources and services.